Pegu, Burma
Current Conditions -  °F | °C
As of 9:00 AM on Saturday 20 Dec 2014 (Local Time) from VYYY Reporting Station
Clear Clear  
Wind Chill: 72°   Ceiling: Unl
Heat Index: 72°   Visibility: 4mi
Dew Point: 66°   Wind: 5mph
Humidity: 83%   Direction: 360°N
Pressure: 30"   Gusts: NA
Location:  17.33°N, 96.5°E
Report Text: VYYY 200300Z 36004KT 7000 NSC 22/19 Q1016 NOSIG
Loading
Personal Weather Stations






























Interactive Weather Map New forecast layout! Learn more

10-Day Weather Forecast

Advertisements
Track Severe Weather on mobile